createdAt,value
2023-03-11T00:00:28.259Z,1.7
2023-03-11T00:01:36.786Z,2
2023-03-11T00:02:45.128Z,2
2023-03-11T00:03:53.485Z,2
2023-03-11T00:05:02.058Z,2.2
2023-03-11T00:06:10.407Z,2.2
2023-03-11T00:07:18.705Z,2.2
2023-03-11T00:08:27.241Z,2.2
2023-03-11T00:09:36.250Z,2.2
2023-03-11T00:10:44.596Z,2.2
2023-03-11T00:11:53.136Z,2
2023-03-11T00:13:01.471Z,2
2023-03-11T00:14:09.816Z,2
2023-03-11T00:15:18.361Z,2.2
2023-03-11T00:16:26.725Z,2.2
2023-03-11T00:17:35.054Z,2.2
2023-03-11T00:18:43.624Z,2.1
2023-03-11T00:19:51.941Z,2.1
2023-03-11T00:21:00.283Z,2.1
2023-03-11T00:22:08.841Z,2.1
2023-03-11T00:23:17.169Z,2.1
2023-03-11T00:24:25.509Z,2.1
2023-03-11T00:25:34.037Z,1.8
2023-03-11T00:26:42.394Z,1.8
2023-03-11T00:27:50.728Z,1.8
2023-03-11T00:28:59.289Z,1.9
2023-03-11T00:30:07.642Z,1.9
2023-03-11T00:31:16.025Z,1.9
2023-03-11T00:32:24.587Z,1.7
2023-03-11T00:33:32.888Z,1.7
2023-03-11T00:34:41.245Z,1.7
2023-03-11T00:35:49.836Z,1.8
2023-03-11T00:36:58.145Z,1.8
2023-03-11T00:38:06.553Z,1.8
2023-03-11T00:39:15.052Z,1.8
2023-03-11T00:40:23.386Z,1.8
2023-03-11T00:41:31.729Z,1.8
2023-03-11T00:42:40.274Z,1.6
2023-03-11T00:43:48.611Z,1.6
2023-03-11T00:44:56.974Z,1.6
2023-03-11T00:46:05.540Z,1.7
2023-03-11T00:47:13.845Z,1.7
2023-03-11T00:48:22.181Z,1.7
2023-03-11T00:49:30.745Z,1.6
2023-03-11T00:50:39.091Z,1.6
2023-03-11T00:51:47.431Z,1.6
2023-03-11T00:52:56.747Z,1.8
2023-03-11T00:54:05.115Z,1.8
2023-03-11T00:55:13.424Z,1.8
2023-03-11T00:56:21.954Z,1.5
2023-03-11T00:57:30.294Z,1.5
2023-03-11T00:58:38.641Z,1.5
2023-03-11T00:59:47.207Z,1.6
2023-03-11T01:00:55.589Z,1.6
2023-03-11T01:02:03.892Z,1.6
2023-03-11T01:03:12.459Z,1.7
2023-03-11T01:04:20.845Z,1.7
2023-03-11T01:05:29.119Z,1.7
2023-03-11T01:06:44.997Z,2.1
2023-03-11T01:07:45.996Z,2.1
2023-03-11T01:08:54.342Z,2.1
2023-03-11T01:10:02.918Z,2
2023-03-11T01:11:11.253Z,2
2023-03-11T01:12:19.576Z,2
2023-03-11T01:13:28.117Z,2
2023-03-11T01:14:36.459Z,2
2023-03-11T01:15:44.849Z,2
2023-03-11T01:16:53.364Z,1.8
2023-03-11T01:18:01.693Z,1.8
2023-03-11T01:19:10.039Z,1.8
2023-03-11T01:20:18.609Z,2
2023-03-11T01:21:26.925Z,2
2023-03-11T01:22:35.265Z,2
2023-03-11T01:23:43.820Z,2.3
2023-03-11T01:24:52.172Z,2.3
2023-03-11T01:26:00.535Z,2.3
2023-03-11T01:27:09.039Z,2
2023-03-11T01:28:17.387Z,2
2023-03-11T01:29:25.726Z,2
2023-03-11T01:30:34.274Z,2
2023-03-11T01:31:42.648Z,2
2023-03-11T01:32:51.028Z,2
2023-03-11T01:33:59.530Z,2.1
2023-03-11T01:35:07.867Z,2.1
2023-03-11T01:36:16.208Z,2.1
2023-03-11T01:37:24.760Z,1.9
2023-03-11T01:38:33.113Z,1.9
2023-03-11T01:39:41.461Z,1.9
2023-03-11T01:40:50.013Z,2.2
2023-03-11T01:41:58.382Z,2.2
2023-03-11T01:43:06.695Z,2.2
2023-03-11T01:44:15.257Z,2.2
2023-03-11T01:45:23.608Z,2.2
2023-03-11T01:46:32.019Z,2.2
2023-03-11T01:47:40.471Z,2.1
2023-03-11T01:48:48.829Z,2.1
2023-03-11T01:49:57.171Z,2.1
2023-03-11T01:51:05.718Z,2.1
2023-03-11T01:52:14.083Z,2.1
2023-03-11T01:53:22.403Z,2.1
2023-03-11T01:54:30.964Z,2.1
2023-03-11T01:55:39.301Z,2.1
2023-03-11T01:56:47.675Z,2.1
2023-03-11T01:57:56.244Z,2.4
2023-03-11T01:59:04.560Z,2.4
2023-03-11T02:00:12.897Z,2.4
2023-03-11T02:01:21.512Z,2.3
2023-03-11T02:02:29.845Z,2.3
2023-03-11T02:03:38.138Z,2.3
2023-03-11T02:04:46.710Z,1.9
2023-03-11T02:05:55.041Z,1.9
2023-03-11T02:07:03.375Z,1.9
2023-03-11T02:08:11.941Z,2
2023-03-11T02:09:20.278Z,2
2023-03-11T02:10:28.628Z,2
2023-03-11T02:11:37.197Z,2.1
2023-03-11T02:12:45.621Z,2.1
2023-03-11T02:13:53.967Z,2.1
2023-03-11T02:15:02.500Z,1.8
2023-03-11T02:16:10.878Z,1.8
2023-03-11T02:17:19.157Z,1.8
2023-03-11T02:18:27.722Z,1.9
2023-03-11T02:19:36.065Z,1.9
2023-03-11T02:20:44.405Z,1.9
2023-03-11T02:21:52.973Z,1.8
2023-03-11T02:23:01.309Z,1.8
2023-03-11T02:24:09.693Z,1.8
2023-03-11T02:25:18.250Z,1.9
2023-03-11T02:26:26.584Z,1.9
2023-03-11T02:27:34.926Z,1.9
2023-03-11T02:28:43.480Z,1.8
2023-03-11T02:29:51.871Z,1.8
2023-03-11T02:31:00.274Z,1.8
2023-03-11T02:32:08.724Z,2
2023-03-11T02:33:17.106Z,2
2023-03-11T02:34:25.452Z,2
2023-03-11T02:35:34.019Z,1.5
2023-03-11T02:36:42.360Z,1.5
2023-03-11T02:37:50.719Z,1.5
2023-03-11T02:38:59.300Z,1.8
2023-03-11T02:40:07.672Z,1.8
2023-03-11T02:41:15.996Z,1.8
2023-03-11T02:42:24.564Z,1.9
2023-03-11T02:43:32.902Z,1.9
2023-03-11T02:44:41.261Z,1.9
2023-03-11T02:45:49.873Z,1.6
2023-03-11T02:46:58.235Z,1.6
2023-03-11T02:48:06.548Z,1.6
2023-03-11T02:49:15.128Z,1.6
2023-03-11T02:50:23.457Z,1.6
2023-03-11T02:51:31.808Z,1.6
2023-03-11T02:52:40.418Z,1.6
2023-03-11T02:53:48.746Z,1.6
2023-03-11T02:54:57.104Z,1.6
2023-03-11T02:56:05.677Z,1.4
2023-03-11T02:57:14.025Z,1.4
2023-03-11T02:58:22.395Z,1.4
2023-03-11T02:59:30.959Z,1.3
2023-03-11T03:00:39.330Z,1.3
2023-03-11T03:01:47.705Z,1.3
2023-03-11T03:02:56.236Z,1
2023-03-11T03:04:04.627Z,1
2023-03-11T03:05:12.944Z,1
2023-03-11T03:06:21.499Z,1
2023-03-11T03:07:29.843Z,1
2023-03-11T03:08:38.254Z,1
2023-03-11T03:09:46.830Z,1
2023-03-11T03:10:55.171Z,1
2023-03-11T03:12:03.533Z,1
2023-03-11T03:13:12.083Z,1.2
2023-03-11T03:14:20.454Z,1.2
2023-03-11T03:15:28.840Z,1.2
2023-03-11T03:16:37.402Z,1.3
2023-03-11T03:17:45.788Z,1.3
2023-03-11T03:18:54.074Z,1.3
2023-03-11T03:20:02.649Z,1
2023-03-11T03:21:11.006Z,1
2023-03-11T03:22:19.366Z,1
2023-03-11T03:23:27.937Z,1
2023-03-11T03:24:36.269Z,1
2023-03-11T03:25:44.602Z,1
2023-03-11T03:26:53.161Z,0.9
2023-03-11T03:28:01.527Z,0.9
2023-03-11T03:29:09.872Z,0.9
2023-03-11T03:30:18.440Z,1.1
2023-03-11T03:31:26.853Z,1.1
2023-03-11T03:32:35.188Z,1.1
2023-03-11T03:33:43.738Z,0.9
2023-03-11T03:34:52.130Z,0.9
2023-03-11T03:36:00.480Z,0.9
2023-03-11T03:37:09.032Z,1.2
2023-03-11T03:38:17.400Z,1.2
2023-03-11T03:39:25.782Z,1.2
2023-03-11T03:40:34.301Z,1.1
2023-03-11T03:41:42.644Z,1.1
2023-03-11T03:42:50.987Z,1.1
2023-03-11T03:43:59.565Z,1.2
2023-03-11T03:45:07.905Z,1.2
2023-03-11T03:46:16.314Z,1.2
2023-03-11T03:47:24.804Z,1.1
2023-03-11T03:48:33.143Z,1.1
2023-03-11T03:49:41.536Z,1.1
2023-03-11T03:50:50.071Z,1.2
2023-03-11T03:51:58.389Z,1.2
2023-03-11T03:53:06.741Z,1.2
2023-03-11T03:54:15.326Z,0.9
2023-03-11T03:55:23.651Z,0.9
2023-03-11T03:56:32.010Z,0.9
2023-03-11T03:57:40.580Z,1.1
2023-03-11T03:58:48.896Z,1.1
2023-03-11T03:59:57.289Z,1.1
2023-03-11T04:01:05.834Z,1.2
2023-03-11T04:02:14.215Z,1.2
2023-03-11T04:03:22.583Z,1.2
2023-03-11T04:04:31.104Z,1.2
2023-03-11T04:05:39.519Z,1.2
2023-03-11T04:06:47.786Z,1.2
2023-03-11T04:07:56.350Z,1.2
2023-03-11T04:09:04.693Z,1.2
2023-03-11T04:10:13.033Z,1.2
2023-03-11T04:11:21.599Z,1.2
2023-03-11T04:12:29.941Z,1.2
2023-03-11T04:13:38.297Z,1.2
2023-03-11T04:14:46.879Z,1.3
2023-03-11T04:15:55.202Z,1.3
2023-03-11T04:17:03.640Z,1.3
2023-03-11T04:18:12.120Z,1.4
2023-03-11T04:19:20.483Z,1.4
2023-03-11T04:20:28.823Z,1.4
2023-03-11T04:21:37.413Z,1.5
2023-03-11T04:22:45.727Z,1.5
2023-03-11T04:23:54.091Z,1.5
2023-03-11T04:25:02.676Z,1.6
2023-03-11T04:26:11.022Z,1.6
2023-03-11T04:27:19.362Z,1.6
2023-03-11T04:28:27.936Z,1.4
2023-03-11T04:29:36.270Z,1.4
2023-03-11T04:30:44.633Z,1.4
2023-03-11T04:31:53.182Z,1.4
2023-03-11T04:33:01.531Z,1.4
2023-03-11T04:34:09.880Z,1.4
2023-03-11T04:35:18.431Z,1.3
2023-03-11T04:36:26.768Z,1.3
2023-03-11T04:37:35.137Z,1.3
2023-03-11T04:38:43.675Z,1.4
2023-03-11T04:39:52.018Z,1.4
2023-03-11T04:41:00.358Z,1.4
2023-03-11T04:42:08.923Z,1.2
2023-03-11T04:43:17.259Z,1.2
2023-03-11T04:44:25.650Z,1.2
2023-03-11T04:45:34.215Z,1.3
2023-03-11T04:46:42.562Z,1.3
2023-03-11T04:47:50.900Z,1.3
2023-03-11T04:48:59.466Z,1.3
2023-03-11T04:50:07.770Z,1.3
2023-03-11T04:51:16.112Z,1.3
2023-03-11T04:52:24.687Z,1.2
2023-03-11T04:53:33.045Z,1.2
2023-03-11T04:54:41.359Z,1.2
2023-03-11T04:55:49.914Z,1.4
2023-03-11T04:56:58.246Z,1.4
2023-03-11T04:58:06.593Z,1.4
2023-03-11T04:59:15.162Z,1.3
2023-03-11T05:00:23.503Z,1.3
2023-03-11T05:01:31.917Z,1.3
2023-03-11T05:02:40.414Z,1.4
2023-03-11T05:03:48.773Z,1.4
2023-03-11T05:04:57.149Z,1.4
2023-03-11T05:06:05.699Z,1.6
2023-03-11T05:07:14.030Z,1.6
2023-03-11T05:08:22.378Z,1.6
2023-03-11T05:09:30.963Z,1.4
2023-03-11T05:10:39.285Z,1.4
2023-03-11T05:11:47.666Z,1.4
2023-03-11T05:12:56.204Z,1.1
2023-03-11T05:14:04.582Z,1.1
2023-03-11T05:15:12.939Z,1.1
2023-03-11T05:16:21.591Z,1.3
2023-03-11T05:17:29.881Z,1.3
2023-03-11T05:18:38.263Z,1.3
2023-03-11T05:19:46.822Z,1.5
2023-03-11T05:20:55.170Z,1.5
2023-03-11T05:22:03.550Z,1.5
2023-03-11T05:23:12.116Z,1.6
2023-03-11T05:24:20.488Z,1.6
2023-03-11T05:25:28.863Z,1.6
2023-03-11T05:26:37.404Z,1.3
2023-03-11T05:27:45.788Z,1.3
2023-03-11T05:28:54.110Z,1.3
2023-03-11T05:30:02.678Z,1.3
2023-03-11T05:31:11.099Z,1.3
2023-03-11T05:32:19.466Z,1.3
2023-03-11T05:33:27.939Z,1.1
2023-03-11T05:34:36.303Z,1.1
2023-03-11T05:35:44.678Z,1.1
2023-03-11T05:36:53.198Z,1.5
2023-03-11T05:38:01.549Z,1.5
2023-03-11T05:39:09.901Z,1.5
2023-03-11T05:40:18.454Z,1.3
2023-03-11T05:41:26.863Z,1.3
2023-03-11T05:42:35.171Z,1.3
2023-03-11T05:43:43.724Z,1.6
2023-03-11T05:44:52.087Z,1.6
2023-03-11T05:46:00.430Z,1.6
2023-03-11T05:47:08.982Z,1.1
2023-03-11T05:48:17.336Z,1.1
2023-03-11T05:49:25.668Z,1.1
2023-03-11T05:50:34.218Z,1.3
2023-03-11T05:51:42.554Z,1.3
2023-03-11T05:52:50.888Z,1.3
2023-03-11T05:53:59.432Z,1.1
2023-03-11T05:55:07.758Z,1.1
2023-03-11T05:56:16.086Z,1.1
2023-03-11T05:57:24.650Z,1.1
2023-03-11T05:58:33.009Z,1.1
2023-03-11T05:59:41.281Z,1.1
2023-03-11T06:00:49.828Z,1.1
2023-03-11T06:01:58.136Z,1.1
2023-03-11T06:03:06.457Z,1.1
2023-03-11T06:04:15.095Z,1
2023-03-11T06:05:23.360Z,1
2023-03-11T06:06:31.656Z,1
2023-03-11T06:07:40.203Z,0.8
2023-03-11T06:08:48.525Z,0.8
2023-03-11T06:09:56.865Z,0.8
2023-03-11T06:11:05.413Z,1.1
2023-03-11T06:12:13.741Z,1.1
2023-03-11T06:13:22.099Z,1.1
2023-03-11T06:14:30.634Z,0.9
2023-03-11T06:15:38.953Z,0.9
2023-03-11T06:16:47.294Z,0.9
2023-03-11T06:17:55.837Z,1.1
2023-03-11T06:19:04.175Z,1.1
2023-03-11T06:20:12.510Z,1.1
2023-03-11T06:21:21.059Z,0.9
2023-03-11T06:22:29.393Z,0.9
2023-03-11T06:23:37.729Z,0.9
2023-03-11T06:24:46.290Z,1
2023-03-11T06:25:54.620Z,1
2023-03-11T06:27:02.955Z,1
2023-03-11T06:28:11.503Z,0.8
2023-03-11T06:29:19.855Z,0.8
2023-03-11T06:30:28.184Z,0.8
2023-03-11T06:31:36.750Z,0.9
2023-03-11T06:32:45.093Z,0.9
2023-03-11T06:33:53.389Z,0.9
2023-03-11T06:35:01.940Z,0.8
2023-03-11T06:36:10.289Z,0.8
2023-03-11T06:37:18.585Z,0.8
2023-03-11T06:38:27.120Z,0.9
2023-03-11T06:39:35.461Z,0.9
2023-03-11T06:40:43.784Z,0.9
2023-03-11T06:41:52.351Z,0.6
2023-03-11T06:43:00.691Z,0.6
2023-03-11T06:44:09.049Z,0.6
2023-03-11T06:45:20.226Z,0.8
2023-03-11T06:46:26.046Z,0.8
2023-03-11T06:47:34.375Z,0.8
2023-03-11T06:48:42.907Z,0.9
2023-03-11T06:49:51.254Z,0.9
2023-03-11T06:50:59.582Z,0.9
2023-03-11T06:52:08.115Z,6.6
2023-03-11T06:53:16.439Z,6.6
2023-03-11T06:54:24.770Z,6.6
2023-03-11T06:55:33.305Z,1
2023-03-11T06:56:41.624Z,1
2023-03-11T06:57:49.952Z,1
2023-03-11T06:58:58.489Z,0.8
2023-03-11T07:00:06.816Z,0.8
2023-03-11T07:01:15.231Z,0.8
2023-03-11T07:02:23.689Z,0.8
2023-03-11T07:03:32.025Z,0.8
2023-03-11T07:04:40.357Z,0.8
2023-03-11T07:05:48.904Z,0.9
2023-03-11T07:06:57.260Z,0.9
2023-03-11T07:08:05.998Z,0.9
2023-03-11T07:09:14.550Z,0.9
2023-03-11T07:10:23.188Z,0.9
2023-03-11T07:11:31.195Z,0.9
2023-03-11T07:12:39.747Z,1.2
2023-03-11T07:13:48.079Z,1.2
2023-03-11T07:14:56.432Z,1.2
2023-03-11T07:16:05.066Z,1.1
2023-03-11T07:17:13.292Z,1.1
2023-03-11T07:18:21.597Z,1.1
2023-03-11T07:19:30.139Z,1.4
2023-03-11T07:20:38.473Z,1.4
2023-03-11T07:21:46.806Z,1.4
2023-03-11T07:22:55.350Z,1.3
2023-03-11T07:24:03.672Z,1.3
2023-03-11T07:25:12.022Z,1.3
2023-03-11T07:26:20.554Z,2.3
2023-03-11T07:27:28.877Z,2.3
2023-03-11T07:28:37.211Z,2.3
2023-03-11T07:29:45.753Z,1.7
2023-03-11T07:30:54.078Z,1.7
2023-03-11T07:32:02.473Z,1.7
2023-03-11T07:33:10.969Z,1.4
2023-03-11T07:34:19.286Z,1.4
2023-03-11T07:35:27.623Z,1.4
2023-03-11T07:36:36.173Z,1.3
2023-03-11T07:37:44.491Z,1.3
2023-03-11T07:38:52.825Z,1.3
2023-03-11T07:40:01.375Z,1.3
2023-03-11T07:41:09.702Z,1.3
2023-03-11T07:42:18.026Z,1.3
2023-03-11T07:43:26.572Z,2.2
2023-03-11T07:44:34.900Z,2.2
2023-03-11T07:45:43.262Z,2.2
2023-03-11T07:46:51.774Z,4
2023-03-11T07:48:00.131Z,4
2023-03-11T07:49:08.466Z,4
2023-03-11T07:50:17.000Z,2.1
2023-03-11T07:51:25.327Z,2.1
2023-03-11T07:52:33.657Z,2.1
2023-03-11T07:53:42.199Z,1.8
2023-03-11T07:54:50.570Z,1.8
2023-03-11T07:55:58.910Z,1.8
2023-03-11T07:57:07.476Z,1.6
2023-03-11T07:58:15.779Z,1.6
2023-03-11T07:59:24.132Z,1.6
2023-03-11T08:00:32.733Z,1.4
2023-03-11T08:01:41.054Z,1.4
2023-03-11T08:02:49.531Z,1.4
2023-03-11T08:03:58.108Z,1.2
2023-03-11T08:05:06.424Z,1.2
2023-03-11T08:06:14.732Z,1.2
2023-03-11T08:07:23.318Z,1.6
2023-03-11T08:08:31.661Z,1.6
2023-03-11T08:09:39.979Z,1.6
2023-03-11T08:10:48.531Z,17.6
2023-03-11T08:11:56.869Z,17.6
2023-03-11T08:13:05.195Z,17.6
2023-03-11T08:14:13.741Z,16.700001
2023-03-11T08:15:22.103Z,16.700001
2023-03-11T08:16:30.435Z,16.700001
2023-03-11T08:17:38.986Z,34.900002
2023-03-11T08:18:47.337Z,34.900002
2023-03-11T08:19:55.663Z,34.900002
2023-03-11T08:21:04.257Z,137.19999
2023-03-11T08:22:12.573Z,137.19999
2023-03-11T08:23:20.902Z,137.19999
2023-03-11T08:24:29.464Z,156.1
2023-03-11T08:25:37.825Z,156.1
2023-03-11T08:26:46.139Z,156.1
2023-03-11T08:27:54.677Z,12.7
2023-03-11T08:29:03.035Z,12.7
2023-03-11T08:30:11.370Z,12.7
2023-03-11T08:31:20.020Z,37.099998
2023-03-11T08:32:28.302Z,37.099998
2023-03-11T08:33:36.605Z,37.099998
2023-03-11T08:34:45.161Z,42.900002
2023-03-11T08:35:53.588Z,42.900002
2023-03-11T08:37:01.881Z,42.900002
2023-03-11T08:38:10.407Z,36.599998
2023-03-11T08:39:18.743Z,36.599998
2023-03-11T08:40:27.159Z,36.599998
2023-03-11T08:41:35.651Z,34.400002
2023-03-11T08:42:43.981Z,34.400002
2023-03-11T08:43:52.367Z,34.400002
2023-03-11T08:45:00.888Z,68
2023-03-11T08:46:09.300Z,68
2023-03-11T08:47:17.598Z,68
2023-03-11T08:48:26.151Z,12
2023-03-11T08:49:34.498Z,12
2023-03-11T08:50:53.183Z,12
2023-03-11T08:51:51.412Z,12.5
2023-03-11T08:52:59.781Z,12.5
2023-03-11T08:54:08.122Z,12.5
2023-03-11T08:55:16.676Z,23
2023-03-11T08:56:25.028Z,23
2023-03-11T08:57:33.379Z,23
2023-03-11T08:58:41.932Z,4.7
2023-03-11T08:59:50.278Z,4.7
2023-03-11T09:00:58.640Z,4.7
2023-03-11T09:02:07.179Z,10.2
2023-03-11T09:03:15.556Z,10.2
2023-03-11T09:04:23.885Z,10.2
2023-03-11T09:05:32.480Z,22.6
2023-03-11T09:06:40.772Z,22.6
2023-03-11T09:07:49.110Z,22.6
2023-03-11T09:08:57.674Z,39.099998
2023-03-11T09:10:05.980Z,39.099998
2023-03-11T09:11:14.331Z,39.099998
2023-03-11T09:12:22.868Z,3.8
2023-03-11T09:13:31.204Z,3.8
2023-03-11T09:14:39.706Z,3.8
2023-03-11T09:15:48.143Z,67.699997
2023-03-11T09:16:56.435Z,67.699997
2023-03-11T09:18:04.796Z,67.699997
2023-03-11T09:19:13.330Z,6.4
2023-03-11T09:20:21.670Z,6.4
2023-03-11T09:21:30.046Z,6.4
2023-03-11T15:03:00.286Z,0
2023-03-11T15:04:08.544Z,0
2023-03-11T15:05:16.873Z,0
2023-03-11T15:06:25.412Z,1.8
2023-03-11T15:07:34.662Z,1.8
2023-03-11T15:08:42.084Z,1.8
2023-03-11T15:09:50.618Z,1.6
2023-03-11T15:10:59.977Z,1.6
2023-03-11T15:12:07.284Z,1.6
2023-03-11T15:13:15.823Z,1.5
2023-03-11T15:14:24.159Z,1.5
2023-03-11T15:15:32.495Z,1.5
2023-03-11T15:16:41.069Z,1.9
2023-03-11T15:17:49.367Z,1.9
2023-03-11T15:18:57.726Z,1.9
2023-03-11T15:20:06.296Z,4.6
2023-03-11T15:21:14.554Z,4.6
2023-03-11T15:22:22.898Z,4.6
2023-03-11T15:23:31.421Z,2.5
2023-03-11T15:24:39.762Z,2.5
2023-03-11T15:25:48.079Z,2.5
2023-03-11T15:26:56.620Z,3.1
2023-03-11T15:28:04.933Z,3.1
2023-03-11T15:29:13.283Z,3.1
2023-03-11T15:30:21.799Z,3.1
2023-03-11T15:31:30.128Z,3.1
2023-03-11T15:32:38.635Z,3.1
2023-03-11T15:33:46.986Z,1.8
2023-03-11T15:34:55.336Z,1.8
2023-03-11T15:36:03.710Z,1.8
2023-03-11T15:37:12.221Z,1.8
2023-03-11T15:38:21.199Z,1.8
2023-03-11T15:39:28.934Z,1.8
2023-03-11T15:40:45.199Z,1.3
2023-03-11T15:41:45.770Z,1.3
2023-03-11T15:42:54.090Z,1.3
2023-03-11T15:44:02.613Z,1.4
2023-03-11T15:45:10.940Z,1.4
2023-03-11T15:46:19.350Z,1.4
2023-03-11T15:47:27.824Z,1.6
2023-03-11T15:48:36.156Z,1.6
2023-03-11T15:49:44.488Z,1.6
2023-03-11T15:50:54.405Z,1.5
2023-03-11T15:52:01.351Z,1.5
2023-03-11T15:53:09.679Z,1.5
2023-03-11T15:54:18.211Z,1.9
2023-03-11T15:55:26.564Z,1.9
2023-03-11T15:56:34.874Z,1.9
2023-03-11T15:57:43.425Z,1.5
2023-03-11T15:58:51.769Z,1.5
2023-03-11T16:00:00.098Z,1.5
2023-03-11T16:01:08.624Z,1.3
2023-03-11T16:02:16.958Z,1.3
2023-03-11T16:03:25.301Z,1.3
2023-03-11T16:04:33.883Z,1.3
2023-03-11T16:05:42.166Z,1.3
2023-03-11T16:06:59.546Z,1.3
2023-03-11T16:07:59.032Z,1.8
2023-03-11T16:09:07.355Z,1.8
2023-03-11T16:10:15.690Z,1.8
2023-03-11T16:11:24.224Z,1.6
2023-03-11T16:12:32.609Z,1.6
2023-03-11T16:13:40.892Z,1.6
2023-03-11T16:14:49.434Z,1.1
2023-03-11T16:15:57.786Z,1.1
2023-03-11T16:17:06.112Z,1.1
2023-03-11T16:18:14.670Z,1.1
2023-03-11T16:19:22.995Z,1.1
2023-03-11T16:20:31.328Z,1.1
2023-03-11T16:21:39.856Z,2.3
2023-03-11T16:22:48.227Z,2.3
2023-03-11T16:23:56.529Z,2.3
2023-03-11T16:25:05.105Z,12.9
2023-03-11T16:26:14.736Z,12.9
2023-03-11T16:27:21.792Z,12.9
2023-03-11T16:28:30.334Z,1.3
2023-03-11T16:29:38.653Z,1.3
2023-03-11T16:30:46.982Z,1.3
2023-03-11T16:31:55.520Z,1.1
2023-03-11T16:33:05.054Z,1.1
2023-03-11T16:34:12.711Z,1.1
2023-03-11T16:35:21.249Z,1.2
2023-03-11T16:36:29.563Z,1.2
2023-03-11T16:37:37.911Z,1.2
2023-03-11T16:38:46.482Z,1.5
2023-03-11T16:39:54.780Z,1.5
2023-03-11T16:41:03.115Z,1.5
2023-03-11T16:42:11.665Z,1.4
2023-03-11T16:43:19.985Z,1.4
2023-03-11T16:44:28.351Z,1.4
2023-03-11T16:45:36.854Z,2.4
2023-03-11T16:46:45.230Z,2.4
2023-03-11T16:47:53.509Z,2.4
2023-03-11T16:49:02.041Z,2.9
2023-03-11T16:50:10.386Z,2.9
2023-03-11T16:51:18.699Z,2.9
2023-03-11T16:52:27.274Z,2.8
2023-03-11T16:53:35.569Z,2.8
2023-03-11T16:54:43.926Z,2.8
2023-03-11T16:55:52.444Z,2.2
2023-03-11T16:57:00.804Z,2.2
2023-03-11T16:58:09.122Z,2.2
2023-03-11T16:59:17.760Z,5.1
2023-03-11T17:00:26.070Z,5.1
2023-03-11T17:01:34.386Z,5.1
2023-03-11T17:02:42.942Z,8.5
2023-03-11T17:03:51.251Z,8.5
2023-03-11T17:04:59.902Z,8.5
2023-03-11T17:06:08.382Z,2.2
2023-03-11T17:07:16.715Z,2.2
2023-03-11T17:08:25.039Z,2.2
2023-03-11T17:09:33.559Z,4
2023-03-11T17:10:41.895Z,4
2023-03-11T17:11:50.216Z,4
2023-03-11T17:12:58.743Z,3.9
2023-03-11T17:14:16.135Z,3.9
2023-03-11T17:15:15.386Z,3.9
2023-03-11T17:16:24.014Z,6.3
2023-03-11T17:17:32.288Z,6.3
2023-03-11T17:18:40.614Z,6.3
2023-03-11T17:19:49.143Z,1.6
2023-03-11T17:20:57.519Z,1.6
2023-03-11T17:22:05.840Z,1.6
2023-03-11T17:23:14.361Z,1.2
2023-03-11T17:24:22.688Z,1.2
2023-03-11T17:25:31.008Z,1.2
2023-03-11T17:26:39.651Z,1
2023-03-11T17:27:47.903Z,1
2023-03-11T17:28:56.215Z,1
2023-03-11T17:30:04.749Z,1
2023-03-11T17:31:13.103Z,1
2023-03-11T17:32:21.484Z,1
2023-03-11T17:33:29.948Z,1.6
2023-03-11T17:34:38.279Z,1.6
2023-03-11T17:35:46.610Z,1.6
2023-03-11T17:36:55.150Z,1.1
2023-03-11T17:38:03.547Z,1.1
2023-03-11T17:39:11.861Z,1.1
2023-03-11T17:40:20.405Z,1
2023-03-11T17:41:28.740Z,1
2023-03-11T17:42:37.098Z,1
2023-03-11T17:43:45.606Z,1.4
2023-03-11T17:44:53.926Z,1.4
2023-03-11T17:46:02.259Z,1.4
2023-03-11T17:47:10.811Z,1.2
2023-03-11T17:48:19.146Z,1.2
2023-03-11T17:49:27.464Z,1.2
2023-03-11T17:50:35.998Z,1.1
2023-03-11T17:51:44.336Z,1.1
2023-03-11T17:52:52.673Z,1.1
2023-03-11T17:54:01.211Z,15.5
2023-03-11T17:55:09.526Z,15.5
2023-03-11T17:56:17.865Z,15.5
2023-03-11T17:57:26.398Z,8.8
2023-03-11T17:58:34.759Z,8.8
2023-03-11T17:59:43.095Z,8.8
2023-03-11T18:00:51.608Z,13
2023-03-11T18:02:00.032Z,13
2023-03-11T18:03:08.277Z,13
2023-03-11T18:04:16.819Z,7.9
2023-03-11T18:05:25.167Z,7.9
2023-03-11T18:06:33.488Z,7.9
2023-03-11T18:07:42.030Z,9.3
2023-03-11T18:08:50.365Z,9.3
2023-03-11T18:09:58.677Z,9.3
2023-03-11T18:11:07.210Z,5.7
2023-03-11T18:12:15.556Z,5.7
2023-03-11T18:13:23.876Z,5.7
2023-03-11T18:14:32.438Z,4.4
2023-03-11T18:15:40.726Z,4.4
2023-03-11T18:16:49.174Z,4.4
2023-03-11T18:17:57.589Z,5.1
2023-03-11T18:19:05.925Z,5.1
2023-03-11T18:20:14.265Z,5.1
2023-03-11T18:21:22.833Z,4.9
2023-03-11T18:22:32.449Z,4.9
2023-03-11T18:23:39.489Z,4.9
2023-03-11T18:24:48.029Z,5.2
2023-03-11T18:25:56.352Z,5.2
2023-03-11T18:27:04.679Z,5.2
2023-03-11T18:28:13.234Z,3.6
2023-03-11T18:29:21.577Z,3.6
2023-03-11T18:30:29.930Z,3.6
2023-03-11T18:31:38.493Z,3.1
2023-03-11T18:32:46.897Z,3.1
2023-03-11T18:33:55.181Z,3.1
2023-03-11T18:35:03.738Z,3.9
2023-03-11T18:36:12.137Z,3.9
2023-03-11T18:37:20.410Z,3.9
2023-03-11T18:38:28.940Z,2.9
2023-03-11T18:39:37.267Z,2.9
2023-03-11T18:40:45.610Z,2.9
2023-03-11T18:41:54.145Z,2.3
2023-03-11T18:43:02.483Z,2.3
2023-03-11T18:44:10.841Z,2.3
2023-03-11T18:45:19.377Z,1.9
2023-03-11T18:46:27.734Z,1.9
2023-03-11T18:47:36.063Z,1.9
2023-03-11T18:48:44.579Z,2
2023-03-11T18:49:52.974Z,2
2023-03-11T18:51:01.348Z,2
2023-03-11T18:52:09.864Z,2.5
2023-03-11T18:53:18.185Z,2.5
2023-03-11T18:54:26.520Z,2.5
2023-03-11T18:55:35.081Z,3.2
2023-03-11T18:56:43.405Z,3.2
2023-03-11T18:57:51.733Z,3.2
2023-03-11T18:59:00.264Z,3.7
2023-03-11T19:00:08.596Z,3.7
2023-03-11T19:01:16.973Z,3.7
2023-03-11T19:02:25.507Z,3.9
2023-03-11T19:03:33.801Z,3.9
2023-03-11T19:04:42.142Z,3.9
2023-03-11T19:05:50.921Z,7.8
2023-03-11T19:06:59.993Z,7.8
2023-03-11T19:08:08.332Z,7.8
2023-03-11T19:09:16.862Z,6.3
2023-03-11T19:10:25.473Z,6.3
2023-03-11T19:11:33.955Z,6.3
2023-03-11T19:12:44.664Z,5.5
2023-03-11T19:13:50.826Z,5.5
2023-03-11T19:14:59.619Z,5.5
2023-03-11T19:16:08.199Z,6.7
2023-03-11T19:17:16.789Z,6.7
2023-03-11T19:18:25.183Z,6.7
2023-03-11T19:19:33.668Z,4.9
2023-03-11T19:20:42.021Z,4.9
2023-03-11T19:21:50.354Z,4.9
2023-03-11T19:22:58.884Z,3.7
2023-03-11T19:24:07.215Z,3.7
2023-03-11T19:25:15.536Z,3.7
2023-03-11T19:26:34.059Z,2.9
2023-03-11T19:27:32.398Z,2.9
2023-03-11T19:28:40.739Z,2.9
2023-03-11T19:29:49.284Z,3
2023-03-11T19:30:57.627Z,3
2023-03-11T19:32:05.938Z,3
2023-03-11T19:33:14.478Z,3.3
2023-03-11T19:34:22.823Z,3.3
2023-03-11T19:35:31.312Z,3.3
2023-03-11T19:36:39.672Z,3.7
2023-03-11T19:37:48.013Z,3.7
2023-03-11T19:38:56.325Z,3.7
2023-03-11T19:40:04.870Z,2.9
2023-03-11T19:41:13.194Z,2.9
2023-03-11T19:42:21.527Z,2.9
2023-03-11T19:43:30.070Z,5
2023-03-11T19:44:38.406Z,5
2023-03-11T19:45:46.820Z,5
2023-03-11T19:46:55.349Z,6.8
2023-03-11T19:48:03.596Z,6.8
2023-03-11T19:49:11.937Z,6.8
2023-03-11T19:50:20.507Z,7.2
2023-03-11T19:51:35.796Z,7.2
2023-03-11T19:52:37.157Z,7.2
2023-03-11T19:53:45.704Z,8.1
2023-03-11T19:54:54.015Z,8.1
2023-03-11T19:56:02.312Z,8.1
2023-03-11T19:57:10.845Z,8
2023-03-11T19:58:19.182Z,8
2023-03-11T19:59:27.516Z,8
2023-03-11T20:00:36.053Z,6.3
2023-03-11T20:01:44.379Z,6.3
2023-03-11T20:02:52.771Z,6.3
2023-03-11T20:04:01.270Z,4.9
2023-03-11T20:05:09.639Z,4.9
2023-03-11T20:06:18.020Z,4.9
2023-03-11T20:07:26.497Z,3.1
2023-03-11T20:08:34.805Z,3.1
2023-03-11T20:09:43.150Z,3.1
2023-03-11T20:10:51.694Z,2.8
2023-03-11T20:11:59.993Z,2.8
2023-03-11T20:13:08.316Z,2.8
2023-03-11T20:14:16.874Z,3.7
2023-03-11T20:15:25.240Z,3.7
2023-03-11T20:16:33.608Z,3.7
2023-03-11T20:17:42.073Z,4.4
2023-03-11T20:18:50.460Z,4.4
2023-03-11T20:19:58.777Z,4.4
2023-03-11T20:21:07.313Z,3.8
2023-03-11T20:22:15.698Z,3.8
2023-03-11T20:23:23.999Z,3.8
2023-03-11T20:24:32.520Z,3
2023-03-11T20:25:40.915Z,3
2023-03-11T20:26:51.177Z,3
2023-03-11T20:27:57.719Z,2.9
2023-03-11T20:29:06.001Z,2.9
2023-03-11T20:30:14.326Z,2.9
2023-03-11T20:31:22.957Z,3.6
2023-03-11T20:32:31.294Z,3.6
2023-03-11T20:33:39.579Z,3.6
2023-03-11T20:34:48.072Z,4.2
2023-03-11T20:35:56.502Z,4.2
2023-03-11T20:37:04.790Z,4.2
2023-03-11T20:38:13.363Z,3.8
2023-03-11T20:39:21.622Z,3.8
2023-03-11T20:40:29.960Z,3.8
2023-03-11T20:41:38.490Z,2.2
2023-03-11T20:42:47.160Z,2.2
2023-03-11T20:43:55.197Z,2.2
2023-03-11T20:45:03.647Z,5.1
2023-03-11T20:46:12.032Z,5.1
2023-03-11T20:47:20.571Z,5.1
2023-03-11T20:48:29.029Z,5.6
2023-03-11T20:49:37.243Z,5.6
2023-03-11T20:50:45.627Z,5.6
2023-03-11T20:51:54.136Z,3.1
2023-03-11T20:53:02.487Z,3.1
2023-03-11T20:54:10.928Z,3.1
2023-03-11T20:55:19.399Z,1.9
2023-03-11T20:56:27.776Z,1.9
2023-03-11T20:57:36.109Z,1.9
2023-03-11T20:58:44.588Z,1.9
2023-03-11T20:59:52.940Z,1.9
2023-03-11T21:01:01.237Z,1.9
2023-03-11T21:02:09.805Z,2.6
2023-03-11T21:03:18.127Z,2.6
2023-03-11T21:04:26.391Z,2.6
2023-03-11T21:05:34.969Z,2.2
2023-03-11T21:06:43.286Z,2.2
2023-03-11T21:07:51.655Z,2.2
2023-03-11T21:09:00.145Z,5.1
2023-03-11T21:10:08.553Z,5.1
2023-03-11T21:11:16.788Z,5.1
2023-03-11T21:12:25.282Z,4.1
2023-03-11T21:13:33.733Z,4.1
2023-03-11T21:14:41.935Z,4.1
2023-03-11T21:15:50.606Z,7.6
2023-03-11T21:16:59.024Z,7.6
2023-03-11T21:18:07.209Z,7.6
2023-03-11T21:19:15.796Z,14.1
2023-03-11T21:20:24.111Z,14.1
2023-03-11T21:21:32.463Z,14.1